Terminal Aerodrome Forecast
Issued by NWS Charleston, SC

Home | Current Version | Previous Version | Text Only | Print | Product List | Glossary On
Versions: 1 2 3 4 5 6 7 8 9 10 11 12 13 14 15 16 17 18 19 20 21 22 23 24 25 26 27 28
000
FTUS42 KCHS 252118 AAD
TAFSAV
TAF AMD
KSAV 252118Z 2521/2618 24007KT P6SM VCTS SCT030CB BKN050
      TEMPO 2521/2522 3SM TSRA BKN030CB
     FM260000 VRB04KT P6SM SCT020 BKN150
     FM261000 VRB03KT P6SM VCSH SCT010 BKN150
     FM261600 10005KT P6SM VCTS SCT020CB BKN120=

USA.gov is the U.S. government's official web portal to all federal, state and local government web resources and services.